createdAt,value
2017-08-26T13:44:05.258Z,1016.16
2017-08-26T13:45:27.173Z,1016.18
2017-08-26T13:46:49.361Z,1016.14
2017-08-26T13:48:11.886Z,1016.12
2017-08-26T13:49:34.723Z,1016.1
2017-08-26T13:50:57.373Z,1016.08
2017-08-26T13:52:19.882Z,1016.11
2017-08-26T13:53:42.074Z,1016.07
2017-08-26T13:55:05.127Z,1016.07
2017-08-26T13:56:27.291Z,1016.02
2017-08-26T13:57:49.873Z,1016.06
2017-08-26T13:59:12.376Z,1016.03
2017-08-26T14:00:35.013Z,1016.06
2017-08-26T14:01:57.217Z,1016.05
2017-08-26T14:03:19.732Z,1016.11
2017-08-26T14:04:41.335Z,1016.09
2017-08-26T14:06:04.121Z,1016.12
2017-08-26T14:07:26.612Z,1016.04
2017-08-26T14:08:48.782Z,1016.1
2017-08-26T14:10:10.993Z,1016.09
2017-08-26T14:11:33.524Z,1016.08
2017-08-26T14:12:55.692Z,1016.06
2017-08-26T14:14:17.861Z,1016.02
2017-08-26T14:15:40.932Z,1016.02
2017-08-26T14:17:04.133Z,1016.08
2017-08-26T14:18:26.643Z,1015.99
2017-08-26T14:19:49.174Z,1016.02
2017-08-26T14:21:11.524Z,1015.97
2017-08-26T14:22:33.496Z,1015.9
2017-08-26T14:23:55.694Z,1015.92
2017-08-26T14:25:17.892Z,1015.93
2017-08-26T14:26:40.125Z,1015.94
2017-08-26T14:28:02.955Z,1015.89
2017-08-26T14:29:25.451Z,1015.89
2017-08-26T14:30:47.934Z,1015.9
2017-08-26T14:32:10.451Z,1015.91
2017-08-26T14:33:33.425Z,1015.93
2017-08-26T14:34:55.615Z,1015.95
2017-08-26T14:36:17.789Z,1015.97
2017-08-26T14:37:39.971Z,1015.94
2017-08-26T14:39:02.863Z,1015.9
2017-08-26T14:40:25.380Z,1015.9
2017-08-26T14:41:48.014Z,1015.92
2017-08-26T14:43:10.172Z,1015.9
2017-08-26T14:44:32.629Z,1015.9
2017-08-26T14:45:54.826Z,1015.82
2017-08-26T14:47:17.059Z,1015.81
2017-08-26T14:48:39.242Z,1015.79
2017-08-26T14:50:01.438Z,1015.76
2017-08-26T14:51:23.754Z,1015.7
2017-08-26T14:52:46.248Z,1015.65
2017-08-26T14:54:08.128Z,1015.62
2017-08-26T14:55:30.279Z,1015.57
2017-08-26T14:56:52.303Z,1015.53
2017-08-26T14:58:13.921Z,1015.49
2017-08-26T14:59:36.094Z,1015.47
2017-08-26T15:00:58.595Z,1015.48
2017-08-26T15:02:20.899Z,1015.53
2017-08-26T15:03:43.176Z,1015.58
2017-08-26T15:05:05.365Z,1015.6
2017-08-26T15:06:28.161Z,1015.65
2017-08-26T15:07:50.011Z,1015.6
2017-08-26T15:09:12.172Z,1015.69
2017-08-26T15:10:34.670Z,1015.68
2017-08-26T15:11:57.585Z,1015.7
2017-08-26T15:13:19.444Z,1015.73
2017-08-26T15:14:41.973Z,1015.7
2017-08-26T15:16:04.141Z,1015.73
2017-08-26T15:17:26.642Z,1015.7
2017-08-26T15:18:48.832Z,1015.7
2017-08-26T15:20:11.063Z,1015.73
2017-08-26T15:21:33.554Z,1015.78
2017-08-26T15:22:56.031Z,1015.76
2017-08-26T15:24:18.233Z,1015.82
2017-08-26T15:25:40.775Z,1015.81
2017-08-26T15:27:03.290Z,1015.78
2017-08-26T15:28:25.795Z,1015.77
2017-08-26T15:29:48.326Z,1015.81
2017-08-26T15:31:10.285Z,1015.82
2017-08-26T15:32:32.152Z,1015.78
2017-08-26T15:33:54.241Z,1015.74
2017-08-26T15:35:16.739Z,1015.78
2017-08-26T15:36:38.959Z,1015.78
2017-08-26T15:38:00.923Z,1015.82
2017-08-26T15:39:23.764Z,1015.82
2017-08-26T15:40:45.635Z,1015.86
2017-08-26T15:42:08.320Z,1015.86
2017-08-26T15:43:29.885Z,1015.87
2017-08-26T15:44:52.434Z,1015.84
2017-08-26T15:46:14.991Z,1015.76
2017-08-26T15:47:37.190Z,1015.77
2017-08-26T15:48:59.471Z,1015.71
2017-08-26T15:50:22.035Z,1015.71
2017-08-26T15:51:44.363Z,1015.73
2017-08-26T15:53:06.570Z,1015.72
2017-08-26T15:54:28.160Z,1015.68
2017-08-26T15:55:50.691Z,1015.61
2017-08-26T15:57:12.558Z,1015.62
2017-08-26T15:58:34.851Z,1015.59
2017-08-26T15:59:56.390Z,1015.62
2017-08-26T16:01:19.026Z,1015.62
2017-08-26T16:02:41.291Z,1015.65
2017-08-26T16:04:03.775Z,1015.6
2017-08-26T16:05:25.970Z,1015.58
2017-08-26T16:06:48.487Z,1015.56
2017-08-26T16:08:10.181Z,1015.52
2017-08-26T16:09:32.011Z,1015.56
2017-08-26T16:10:53.870Z,1015.55
2017-08-26T16:12:16.057Z,1015.52
2017-08-26T16:13:37.946Z,1015.52
2017-08-26T16:15:00.521Z,1015.54
2017-08-26T16:16:22.672Z,1015.5
2017-08-26T16:17:45.488Z,1015.46
2017-08-26T16:19:07.346Z,1015.5
2017-08-26T16:20:29.822Z,1015.48
2017-08-26T16:21:52.414Z,1015.49
2017-08-26T16:23:15.272Z,1015.45
2017-08-26T16:24:36.800Z,1015.43
2017-08-26T16:25:59.324Z,1015.42
2017-08-26T16:27:21.509Z,1015.38
2017-08-26T16:28:44.052Z,1015.44
2017-08-26T16:30:06.234Z,1015.39
2017-08-26T16:31:28.074Z,1015.4
2017-08-26T16:32:50.584Z,1015.38
2017-08-26T16:34:13.488Z,1015.36
2017-08-26T16:35:36.044Z,1015.34
2017-08-26T16:36:58.251Z,1015.34
2017-08-26T16:38:20.429Z,1015.31
2017-08-26T16:39:43.256Z,1015.3
2017-08-26T16:41:05.183Z,1015.3
2017-08-26T16:42:27.362Z,1015.31
2017-08-26T16:43:49.872Z,1015.29
2017-08-26T16:45:12.796Z,1015.35
2017-08-26T16:46:34.641Z,1015.31
2017-08-26T16:47:56.795Z,1015.37
2017-08-26T16:49:18.656Z,1015.36
2017-08-26T16:50:41.136Z,1015.33
2017-08-26T16:52:03.351Z,1015.32
2017-08-26T16:53:25.550Z,1015.34
2017-08-26T16:54:48.183Z,1015.34
2017-08-26T16:56:10.721Z,1015.33
2017-08-26T16:57:32.882Z,1015.32
2017-08-26T16:58:55.374Z,1015.34
2017-08-26T17:00:17.546Z,1015.32
2017-08-26T17:01:40.157Z,1015.35
2017-08-26T17:03:02.034Z,1015.31
2017-08-26T17:04:24.581Z,1015.33
2017-08-26T17:05:46.764Z,1015.3
2017-08-26T17:07:08.936Z,1015.32
2017-08-26T17:08:31.576Z,1015.28
2017-08-26T17:09:54.094Z,1015.3
2017-08-26T17:11:16.278Z,1015.31
2017-08-26T17:12:38.793Z,1015.29
2017-08-26T17:14:01.342Z,1015.3
2017-08-26T17:15:23.846Z,1015.29
2017-08-26T17:16:46.341Z,1015.34
2017-08-26T17:18:08.572Z,1015.33
2017-08-26T17:19:30.536Z,1015.29
2017-08-26T17:20:52.754Z,1015.34
2017-08-26T17:22:14.612Z,1015.32
2017-08-26T17:23:36.401Z,1015.34
2017-08-26T17:24:58.608Z,1015.34
2017-08-26T17:26:20.147Z,1015.34
2017-08-26T17:27:41.994Z,1015.37
2017-08-26T17:29:03.931Z,1015.35
2017-08-26T17:30:26.445Z,1015.39
2017-08-26T17:31:48.642Z,1015.33
2017-08-26T17:33:10.849Z,1015.37
2017-08-26T17:34:33.082Z,1015.33
2017-08-26T17:35:54.632Z,1015.32
2017-08-26T17:37:16.868Z,1015.35
2017-08-26T17:38:39.025Z,1015.34
2017-08-26T17:40:01.231Z,1015.35
2017-08-26T17:41:23.436Z,1015.33
2017-08-26T17:42:45.271Z,1015.38
2017-08-26T17:44:07.528Z,1015.39
2017-08-26T17:45:30.581Z,1015.37
2017-08-26T17:46:52.458Z,1015.38
2017-08-26T17:48:14.959Z,1015.4
2017-08-26T17:49:37.570Z,1015.37
2017-08-26T17:50:59.835Z,1015.35
2017-08-26T17:52:22.029Z,1015.33
2017-08-26T17:53:44.537Z,1015.34
2017-08-26T17:55:06.696Z,1015.33
2017-08-26T17:56:29.192Z,1015.33
2017-08-26T17:57:51.745Z,1015.31
2017-08-26T17:59:13.914Z,1015.3
2017-08-26T18:00:36.089Z,1015.3
2017-08-26T18:01:58.932Z,1015.29
2017-08-26T18:03:21.337Z,1015.28
2017-08-26T18:04:43.187Z,1015.25
2017-08-26T18:06:05.357Z,1015.31
2017-08-26T18:07:27.753Z,1015.29
2017-08-26T18:08:49.932Z,1015.32
2017-08-26T18:10:11.474Z,1015.34
2017-08-26T18:11:33.332Z,1015.34
2017-08-26T18:12:56.202Z,1015.32
2017-08-26T18:14:18.081Z,1015.34
2017-08-26T18:15:40.248Z,1015.37
2017-08-26T18:17:01.789Z,1015.38
2017-08-26T18:18:24.639Z,1015.36
2017-08-26T18:19:46.813Z,1015.4
2017-08-26T18:21:09.018Z,1015.38
2017-08-26T18:22:30.863Z,1015.39
2017-08-26T18:23:53.711Z,1015.43
2017-08-26T18:25:16.022Z,1015.46
2017-08-26T18:26:37.842Z,1015.5
2017-08-26T18:27:59.748Z,1015.48
2017-08-26T18:29:21.842Z,1015.48
2017-08-26T18:30:43.685Z,1015.52
2017-08-26T18:32:05.542Z,1015.56
2017-08-26T18:33:27.514Z,1015.64
2017-08-26T18:34:50.318Z,1015.6
2017-08-26T18:36:12.657Z,1015.62
2017-08-26T18:37:34.865Z,1015.64
2017-08-26T18:38:57.030Z,1015.69
2017-08-26T18:40:19.951Z,1015.69
2017-08-26T18:41:41.856Z,1015.72
2017-08-26T18:43:04.045Z,1015.72
2017-08-26T18:44:26.621Z,1015.7
2017-08-26T18:45:49.032Z,1015.71
2017-08-26T18:47:10.869Z,1015.74
2017-08-26T18:48:33.364Z,1015.75
2017-08-26T18:49:55.852Z,1015.72
2017-08-26T18:51:18.348Z,1015.77
2017-08-26T18:52:40.566Z,1015.72
2017-08-26T18:54:02.892Z,1015.78
2017-08-26T18:55:25.375Z,1015.75
2017-08-26T18:56:47.927Z,1015.77
2017-08-26T18:58:09.792Z,1015.82
2017-08-26T18:59:31.652Z,1015.79
2017-08-26T19:00:54.172Z,1015.81
2017-08-26T19:02:17.093Z,1015.81
2017-08-26T19:03:38.960Z,1015.83
2017-08-26T19:05:01.141Z,1015.88
2017-08-26T19:06:23.320Z,1015.84
2017-08-26T19:07:45.533Z,1015.84
2017-08-26T19:09:07.115Z,1015.85
2017-08-26T19:10:28.754Z,1015.86
2017-08-26T19:11:50.929Z,1015.86
2017-08-26T19:13:13.459Z,1015.87
2017-08-26T19:14:35.611Z,1015.83
2017-08-26T19:15:57.878Z,1015.86
2017-08-26T19:17:20.054Z,1015.85
2017-08-26T19:18:42.909Z,1015.87
2017-08-26T19:20:05.085Z,1015.85
2017-08-26T19:21:26.968Z,1015.84
2017-08-26T19:22:49.247Z,1015.84
2017-08-26T19:24:11.776Z,1015.84
2017-08-26T19:25:33.953Z,1015.84
2017-08-26T19:26:56.585Z,1015.9
2017-08-26T19:28:18.759Z,1015.87
2017-08-26T19:29:41.513Z,1015.95
2017-08-26T19:31:03.680Z,1015.96
2017-08-26T19:32:25.505Z,1015.95
2017-08-26T19:33:46.726Z,1015.96
2017-08-26T19:35:08.821Z,1015.95
2017-08-26T19:36:30.373Z,1015.9
2017-08-26T19:37:52.942Z,1015.94
2017-08-26T19:39:15.436Z,1015.93
2017-08-26T19:40:38.047Z,1015.91
2017-08-26T19:41:59.897Z,1015.93
2017-08-26T19:43:21.527Z,1015.94
2017-08-26T19:44:43.719Z,1015.93
2017-08-26T19:46:06.253Z,1015.94
2017-08-26T19:47:27.462Z,1015.9
2017-08-26T19:48:49.674Z,1015.88
2017-08-26T19:50:11.947Z,1015.93
2017-08-26T19:51:34.789Z,1015.94
2017-08-26T19:52:57.291Z,1015.96
2017-08-26T19:54:19.794Z,1015.91
2017-08-26T19:55:42.037Z,1015.93
2017-08-26T19:57:04.690Z,1016
2017-08-26T19:58:26.856Z,1015.97
2017-08-26T19:59:49.153Z,1015.92
2017-08-26T20:01:11.655Z,1015.92
2017-08-26T20:02:34.311Z,1015.94
2017-08-26T20:03:55.846Z,1015.94
2017-08-26T20:05:17.707Z,1015.91
2017-08-26T20:06:39.712Z,1015.91
2017-08-26T20:08:01.845Z,1015.91
2017-08-26T20:09:24.441Z,1015.93
2017-08-26T20:10:46.983Z,1015.95
2017-08-26T20:12:08.515Z,1015.94
2017-08-26T20:13:31.099Z,1015.93
2017-08-26T20:14:53.593Z,1015.91
2017-08-26T20:16:15.438Z,1015.94
2017-08-26T20:17:37.593Z,1015.93
2017-08-26T20:19:00.088Z,1015.92
2017-08-26T20:20:22.597Z,1015.92
2017-08-26T20:21:45.094Z,1015.94
2017-08-26T20:23:07.661Z,1015.96
2017-08-26T20:24:30.475Z,1015.95
2017-08-26T20:25:52.654Z,1015.93
2017-08-26T20:27:14.835Z,1015.94
2017-08-26T20:28:36.683Z,1015.94
2017-08-26T20:29:59.142Z,1015.94
2017-08-26T20:31:20.988Z,1015.95
2017-08-26T20:32:43.248Z,1015.93
2017-08-26T20:34:05.429Z,1015.95
2017-08-26T20:35:28.032Z,1015.94
2017-08-26T20:36:49.894Z,1015.92
2017-08-26T20:38:12.376Z,1015.94
2017-08-26T20:39:34.855Z,1015.91
2017-08-26T20:40:57.060Z,1015.95
2017-08-26T20:42:19.566Z,1015.93
2017-08-26T20:43:41.723Z,1015.93
2017-08-26T20:45:03.896Z,1015.92
2017-08-26T20:46:26.139Z,1015.91
2017-08-26T20:47:47.967Z,1015.92
2017-08-26T20:49:09.497Z,1015.96
2017-08-26T20:50:31.978Z,1015.98
2017-08-26T20:51:54.236Z,1016
2017-08-26T20:53:16.406Z,1015.97
2017-08-26T20:54:38.275Z,1016
2017-08-26T20:56:00.438Z,1016.07
2017-08-26T20:57:22.586Z,1016.02
2017-08-26T20:58:45.166Z,1016.01
2017-08-26T21:00:07.398Z,1016.01
2017-08-26T21:01:29.924Z,1015.99
2017-08-26T21:02:52.478Z,1016
2017-08-26T21:04:14.379Z,1016
2017-08-26T21:05:36.855Z,1016.04
2017-08-26T21:06:59.085Z,1016.02
2017-08-26T21:08:21.945Z,1016.04
2017-08-26T21:09:44.123Z,1016.11
2017-08-26T21:11:06.265Z,1016.12
2017-08-26T21:12:28.527Z,1016.12
2017-08-26T21:13:51.029Z,1016.16
2017-08-26T21:15:12.906Z,1016.17
2017-08-26T21:16:35.548Z,1016.17
2017-08-26T21:17:57.508Z,1016.17
2017-08-26T21:19:20.026Z,1016.09
2017-08-26T21:20:42.505Z,1016.17
2017-08-26T21:22:04.675Z,1016.23
2017-08-26T21:23:26.860Z,1016.25
2017-08-26T21:24:49.435Z,1016.23
2017-08-26T21:26:11.306Z,1016.25
2017-08-26T21:27:33.904Z,1016.21
2017-08-26T21:28:55.743Z,1016.18
2017-08-26T21:30:18.210Z,1016.2
2017-08-26T21:31:40.701Z,1016.23
2017-08-26T21:33:03.234Z,1016.23
2017-08-26T21:34:25.406Z,1016.21
2017-08-26T21:35:47.917Z,1016.21
2017-08-26T21:37:09.436Z,1016.19
2017-08-26T21:38:31.584Z,1016.21
2017-08-26T21:39:53.735Z,1016.24
2017-08-26T21:41:15.924Z,1016.24
2017-08-26T21:42:38.084Z,1016.3
2017-08-26T21:44:00.307Z,1016.31
2017-08-26T21:45:22.570Z,1016.27
2017-08-26T21:46:44.455Z,1016.3
2017-08-26T21:48:06.995Z,1016.3
2017-08-26T21:49:29.509Z,1016.3
2017-08-26T21:50:51.688Z,1016.24
2017-08-26T21:52:14.609Z,1016.23
2017-08-26T21:53:36.515Z,1016.25
2017-08-26T21:54:58.775Z,1016.27
2017-08-26T21:56:20.983Z,1016.3
2017-08-26T21:57:43.403Z,1016.32
2017-08-26T21:59:05.936Z,1016.4
2017-08-26T22:00:28.094Z,1016.38
2017-08-26T22:01:49.924Z,1016.4
2017-08-26T22:03:12.397Z,1016.38
2017-08-26T22:04:34.542Z,1016.36
2017-08-26T22:05:57.244Z,1016.38
2017-08-26T22:07:19.118Z,1016.43
2017-08-26T22:08:41.639Z,1016.43
2017-08-26T22:10:04.204Z,1016.44
2017-08-26T22:11:26.528Z,1016.41
2017-08-26T22:12:49.055Z,1016.41
2017-08-26T22:14:11.943Z,1016.37
2017-08-26T22:15:34.140Z,1016.35
2017-08-26T22:16:55.991Z,1016.36
2017-08-26T22:18:17.846Z,1016.34
2017-08-26T22:19:40.689Z,1016.29
2017-08-26T22:21:02.871Z,1016.27
2017-08-26T22:22:25.355Z,1016.3
2017-08-26T22:23:47.501Z,1016.3
2017-08-26T22:25:10.468Z,1016.34
2017-08-26T22:26:32.344Z,1016.33
2017-08-26T22:27:54.836Z,1016.36
2017-08-26T22:29:16.986Z,1016.32
2017-08-26T22:30:39.555Z,1016.35
2017-08-26T22:32:01.729Z,1016.36
2017-08-26T22:33:23.913Z,1016.31
2017-08-26T22:34:46.393Z,1016.32
2017-08-26T22:36:08.883Z,1016.29
2017-08-26T22:37:31.090Z,1016.36
2017-08-26T22:38:53.296Z,1016.37
2017-08-26T22:40:15.782Z,1016.41
2017-08-26T22:41:37.975Z,1016.42
2017-08-26T22:42:59.847Z,1016.44
2017-08-26T22:44:22.313Z,1016.45
2017-08-26T22:45:44.832Z,1016.46
2017-08-26T22:47:07.345Z,1016.43
2017-08-26T22:48:29.209Z,1016.51
2017-08-26T22:49:51.052Z,1016.49
2017-08-26T22:51:12.893Z,1016.52
2017-08-26T22:52:35.043Z,1016.55
2017-08-26T22:53:57.196Z,1016.56
2017-08-26T22:55:19.361Z,1016.54
2017-08-26T22:56:41.214Z,1016.53
2017-08-26T22:58:03.371Z,1016.56
2017-08-26T22:59:25.523Z,1016.58
2017-08-26T23:00:47.684Z,1016.54
2017-08-26T23:02:09.519Z,1016.52
2017-08-26T23:03:31.723Z,1016.48
2017-08-26T23:04:54.374Z,1016.51
2017-08-26T23:06:16.844Z,1016.49
2017-08-26T23:07:39.015Z,1016.53
2017-08-26T23:09:01.535Z,1016.53
2017-08-26T23:10:24.158Z,1016.5
2017-08-26T23:11:46.422Z,1016.5
2017-08-26T23:13:08.583Z,1016.49
2017-08-26T23:14:31.124Z,1016.49
2017-08-26T23:15:53.689Z,1016.51
2017-08-26T23:17:15.520Z,1016.52
2017-08-26T23:18:37.040Z,1016.52
2017-08-26T23:19:59.544Z,1016.51
2017-08-26T23:21:22.003Z,1016.52
2017-08-26T23:22:44.645Z,1016.51
2017-08-26T23:24:06.166Z,1016.48
2017-08-26T23:25:28.396Z,1016.48
2017-08-26T23:26:50.888Z,1016.49
2017-08-26T23:28:13.304Z,1016.5
2017-08-26T23:29:35.454Z,1016.51
2017-08-26T23:30:57.904Z,1016.52
2017-08-26T23:32:20.063Z,1016.49
2017-08-26T23:33:41.903Z,1016.5
2017-08-26T23:35:04.032Z,1016.51
2017-08-26T23:36:25.574Z,1016.51
2017-08-26T23:37:47.735Z,1016.54
2017-08-26T23:39:09.975Z,1016.49
2017-08-26T23:40:32.586Z,1016.51
2017-08-26T23:41:54.553Z,1016.52
2017-08-26T23:43:16.063Z,1016.52
2017-08-26T23:44:37.892Z,1016.51
2017-08-26T23:45:59.729Z,1016.52
2017-08-26T23:47:22.213Z,1016.49
2017-08-26T23:48:44.592Z,1016.48
2017-08-26T23:50:06.428Z,1016.51
2017-08-26T23:51:28.607Z,1016.52
2017-08-26T23:52:51.434Z,1016.56
2017-08-26T23:54:13.580Z,1016.51
2017-08-26T23:55:35.082Z,1016.54
2017-08-26T23:56:56.967Z,1016.58
2017-08-26T23:58:19.501Z,1016.56
2017-08-26T23:59:41.351Z,1016.57
